createdAt,value
2023-02-14T00:00:22.782Z,6.38
2023-02-14T00:02:52.470Z,6.85
2023-02-14T00:05:22.066Z,6.60
2023-02-14T00:07:54.264Z,6.75
2023-02-14T00:10:23.829Z,6.45
2023-02-14T00:12:53.442Z,6.57
2023-02-14T00:15:22.980Z,7.03
2023-02-14T00:17:53.079Z,6.18
2023-02-14T00:20:22.944Z,6.93
2023-02-14T00:22:55.202Z,6.80
2023-02-14T00:25:24.959Z,7.00
2023-02-14T00:27:55.690Z,6.10
2023-02-14T00:30:25.489Z,6.40
2023-02-14T00:32:55.146Z,7.53
2023-02-14T00:35:24.717Z,7.20
2023-02-14T00:37:56.933Z,7.63
2023-02-14T00:40:26.731Z,6.80
2023-02-14T00:42:56.333Z,7.13
2023-02-14T00:45:25.951Z,7.32
2023-02-14T00:47:55.580Z,6.90
2023-02-14T00:50:25.168Z,7.18
2023-02-14T00:52:57.353Z,7.60
2023-02-14T00:55:27.082Z,7.53
2023-02-14T00:57:56.975Z,7.18
2023-02-14T01:00:26.802Z,7.10
2023-02-14T01:02:58.405Z,7.75
2023-02-14T01:05:28.020Z,7.47
2023-02-14T01:08:00.311Z,7.05
2023-02-14T01:10:30.063Z,7.45
2023-02-14T01:13:01.414Z,7.82
2023-02-14T01:15:31.139Z,7.28
2023-02-14T01:18:24.167Z,7.30
2023-02-14T01:20:53.739Z,7.50
2023-02-14T01:23:25.898Z,6.72
2023-02-14T01:25:55.447Z,7.70
2023-02-14T01:28:25.049Z,7.03
2023-02-14T01:30:54.656Z,7.65
2023-02-14T01:33:24.400Z,7.70
2023-02-14T01:35:53.921Z,7.57
2023-02-14T01:38:26.112Z,7.45
2023-02-14T01:40:55.744Z,7.80
2023-02-14T01:43:27.676Z,7.40
2023-02-14T01:45:57.331Z,8.57
2023-02-14T01:48:27.713Z,7.78
2023-02-14T01:50:57.843Z,8.45
2023-02-14T01:53:31.863Z,8.25
2023-02-14T01:56:08.762Z,8.07
2023-02-14T01:58:41.448Z,8.07
2023-02-14T02:01:11.670Z,7.63
2023-02-14T02:03:44.160Z,8.20
2023-02-14T02:06:18.234Z,8.00
2023-02-14T02:08:55.098Z,7.72
2023-02-14T02:11:24.655Z,8.07
2023-02-14T02:13:54.260Z,8.02
2023-02-14T02:16:33.786Z,7.80
2023-02-14T02:19:33.479Z,8.38
2023-02-14T02:22:28.424Z,8.18
2023-02-14T02:25:03.366Z,8.32
2023-02-14T02:28:06.140Z,8.60
2023-02-14T02:31:10.754Z,8.43
2023-02-14T02:34:06.658Z,8.07
2023-02-14T02:37:11.073Z,8.70
2023-02-14T02:39:52.392Z,9.15
2023-02-14T02:42:28.190Z,8.43
2023-02-14T02:45:06.292Z,8.77
2023-02-14T02:47:40.586Z,8.68
2023-02-14T02:50:34.161Z,8.70
2023-02-14T02:53:10.719Z,9.00
2023-02-14T02:55:58.456Z,8.45
2023-02-14T02:58:31.048Z,9.13
2023-02-14T03:01:02.785Z,9.27
2023-02-14T03:03:45.699Z,9.38
2023-02-14T03:06:15.310Z,9.55
2023-02-14T03:08:47.511Z,8.68
2023-02-14T03:11:17.682Z,9.93
2023-02-14T03:14:03.559Z,9.38
2023-02-14T03:16:46.071Z,9.90
2023-02-14T03:19:34.578Z,9.85
2023-02-14T03:22:10.214Z,9.70
2023-02-14T03:24:47.714Z,10.60
2023-02-14T03:27:22.892Z,9.75
2023-02-14T03:29:59.125Z,9.82
2023-02-14T03:32:35.763Z,10.07
2023-02-14T03:35:12.737Z,10.77
2023-02-14T03:37:46.788Z,9.80
2023-02-14T03:40:22.793Z,11.20
2023-02-14T03:42:55.332Z,10.30
2023-02-14T03:45:28.340Z,10.40
2023-02-14T03:47:59.447Z,11.15
2023-02-14T03:50:31.240Z,11.15
2023-02-14T03:53:01.681Z,10.88
2023-02-14T03:55:37.720Z,10.52
2023-02-14T03:58:12.236Z,11.52
2023-02-14T04:00:43.776Z,8.70
2023-02-14T04:03:15.372Z,11.38
2023-02-14T04:05:46.792Z,10.23
2023-02-14T04:08:23.602Z,11.70
2023-02-14T04:10:56.830Z,12.52
2023-02-14T04:13:26.560Z,12.32
2023-02-14T04:15:56.217Z,11.60
2023-02-14T04:18:38.070Z,11.07
2023-02-14T04:21:08.207Z,12.52
2023-02-14T04:23:37.799Z,11.35
2023-02-14T04:26:10.363Z,13.80
2023-02-14T04:28:39.964Z,12.23
2023-02-14T04:31:11.148Z,11.75
2023-02-14T04:33:41.721Z,12.73
2023-02-14T04:36:11.508Z,13.48
2023-02-14T04:38:41.052Z,12.65
2023-02-14T04:41:13.671Z,13.20
2023-02-14T04:43:43.277Z,13.75
2023-02-14T04:46:12.989Z,11.95
2023-02-14T04:48:42.552Z,11.95
2023-02-14T04:51:12.143Z,11.65
2023-02-14T04:53:41.737Z,13.52
2023-02-14T04:56:14.062Z,13.55
2023-02-14T04:58:43.642Z,12.95
2023-02-14T05:01:13.270Z,14.77
2023-02-14T05:03:43.401Z,12.50
2023-02-14T05:06:13.073Z,13.45
2023-02-14T05:08:42.659Z,14.73
2023-02-14T05:11:14.919Z,15.45
2023-02-14T05:13:44.520Z,14.77
2023-02-14T05:16:14.127Z,16.17
2023-02-14T05:18:43.773Z,15.55
2023-02-14T05:21:13.437Z,14.23
2023-02-14T05:23:43.060Z,15.48
2023-02-14T05:26:15.266Z,16.35
2023-02-14T05:28:44.889Z,16.35
2023-02-14T05:31:14.551Z,17.15
2023-02-14T05:33:44.193Z,17.05
2023-02-14T05:36:13.999Z,17.02
2023-02-14T05:38:43.620Z,17.20
2023-02-14T05:41:15.885Z,18.35
2023-02-14T05:43:45.464Z,16.77
2023-02-14T05:46:15.093Z,17.52
2023-02-14T05:48:45.860Z,18.17
2023-02-14T05:51:15.534Z,18.38
2023-02-14T05:53:45.156Z,17.50
2023-02-14T05:56:17.369Z,17.38
2023-02-14T05:58:46.997Z,17.45
2023-02-14T06:01:16.612Z,17.85
2023-02-14T06:03:46.663Z,18.15
2023-02-14T06:06:16.259Z,18.23
2023-02-14T06:08:45.856Z,19.00
2023-02-14T06:11:18.023Z,18.98
2023-02-14T06:13:47.636Z,19.38
2023-02-14T06:16:17.361Z,19.17
2023-02-14T06:18:46.963Z,20.00
2023-02-14T06:21:16.528Z,20.58
2023-02-14T06:23:46.093Z,18.98
2023-02-14T06:26:18.298Z,19.58
2023-02-14T06:28:47.919Z,20.20
2023-02-14T06:31:20.579Z,18.58
2023-02-14T06:33:50.210Z,18.92
2023-02-14T06:36:19.815Z,20.33
2023-02-14T06:38:50.512Z,20.48
2023-02-14T06:41:22.684Z,19.10
2023-02-14T06:43:52.290Z,19.65
2023-02-14T06:46:22.228Z,20.40
2023-02-14T06:48:52.028Z,18.63
2023-02-14T06:51:21.672Z,18.52
2023-02-14T06:53:51.349Z,19.98
2023-02-14T06:56:23.809Z,19.13
2023-02-14T06:58:53.411Z,19.25
2023-02-14T07:01:23.440Z,18.80
2023-02-14T07:03:53.507Z,18.58
2023-02-14T07:06:23.290Z,17.10
2023-02-14T07:08:52.947Z,16.25
2023-02-14T07:11:25.899Z,17.20
2023-02-14T07:13:55.603Z,17.02
2023-02-14T07:16:26.027Z,16.77
2023-02-14T07:18:55.949Z,16.17
2023-02-14T07:21:25.812Z,15.52
2023-02-14T07:23:55.419Z,14.38
2023-02-14T07:26:27.691Z,14.48
2023-02-14T07:28:57.274Z,14.07
2023-02-14T07:31:27.245Z,14.07
2023-02-14T07:33:56.952Z,14.45
2023-02-14T07:36:26.657Z,14.82
2023-02-14T07:38:56.249Z,14.48
2023-02-14T07:41:28.429Z,13.60
2023-02-14T07:43:58.046Z,12.85
2023-02-14T07:46:27.690Z,13.23
2023-02-14T07:48:57.322Z,13.50
2023-02-14T07:51:26.973Z,12.73
2023-02-14T07:53:56.648Z,13.27
2023-02-14T07:56:29.151Z,12.50
2023-02-14T07:58:58.762Z,13.63
2023-02-14T08:01:28.501Z,12.63
2023-02-14T08:03:58.137Z,13.23
2023-02-14T08:06:28.697Z,12.75
2023-02-14T08:08:58.576Z,13.48
2023-02-14T08:11:43.235Z,12.93
2023-02-14T08:14:12.810Z,12.45
2023-02-14T08:16:42.773Z,12.73
2023-02-14T08:19:12.327Z,12.82
2023-02-14T08:21:42.482Z,12.50
2023-02-14T08:24:12.095Z,12.85
2023-02-14T08:26:44.268Z,12.70
2023-02-14T08:29:16.586Z,12.93
2023-02-14T08:31:47.528Z,12.90
2023-02-14T08:34:17.740Z,13.18
2023-02-14T08:36:47.590Z,13.48
2023-02-14T08:39:17.575Z,12.98
2023-02-14T08:41:49.714Z,13.02
2023-02-14T08:44:19.285Z,12.98
2023-02-14T08:46:48.940Z,12.85
2023-02-14T08:49:18.671Z,13.15
2023-02-14T08:51:48.323Z,14.20
2023-02-14T08:54:17.912Z,13.07
2023-02-14T08:56:50.171Z,12.98
2023-02-14T08:59:19.785Z,13.15
2023-02-14T09:01:49.342Z,13.10
2023-02-14T09:04:19.004Z,12.65
2023-02-14T09:06:48.598Z,12.82
2023-02-14T09:09:19.510Z,13.32
2023-02-14T09:11:51.728Z,12.63
2023-02-14T09:14:21.841Z,12.77
2023-02-14T09:16:51.521Z,12.48
2023-02-14T09:19:21.174Z,12.38
2023-02-14T09:21:50.791Z,12.18
2023-02-14T09:24:20.349Z,12.10
2023-02-14T09:26:52.520Z,11.90
2023-02-14T09:29:22.110Z,12.90
2023-02-14T09:31:51.799Z,12.18
2023-02-14T09:34:33.980Z,12.57
2023-02-14T09:37:06.258Z,11.60
2023-02-14T09:39:36.100Z,12.27
2023-02-14T09:42:35.363Z,11.82
2023-02-14T09:45:07.907Z,11.75
2023-02-14T09:47:40.223Z,12.30
2023-02-14T09:50:18.157Z,11.82
2023-02-14T09:52:50.449Z,12.07
2023-02-14T09:55:21.022Z,11.68
2023-02-14T09:58:04.135Z,11.82
2023-02-14T10:00:39.015Z,11.48
2023-02-14T10:03:24.492Z,11.70
2023-02-14T10:06:00.276Z,11.50
2023-02-14T10:08:44.461Z,11.50
2023-02-14T10:13:50.899Z,11.60
2023-02-14T10:16:27.204Z,12.23
2023-02-14T10:19:00.091Z,11.82
2023-02-14T10:21:32.186Z,11.68
2023-02-14T10:24:08.430Z,11.77
2023-02-14T10:26:41.290Z,12.05
2023-02-14T10:29:16.975Z,11.38
2023-02-14T10:31:55.869Z,11.75
2023-02-14T10:34:31.175Z,12.18
2023-02-14T10:37:17.525Z,12.07
2023-02-14T10:40:05.822Z,12.15
2023-02-14T10:42:41.400Z,12.05
2023-02-14T10:45:21.283Z,12.23
2023-02-14T10:47:57.011Z,13.00
2023-02-14T10:50:34.429Z,12.57
2023-02-14T10:53:12.905Z,12.45
2023-02-14T10:55:49.216Z,11.90
2023-02-14T10:58:21.220Z,12.95
2023-02-14T11:01:04.779Z,12.55
2023-02-14T11:03:36.266Z,12.65
2023-02-14T11:06:06.132Z,12.27
2023-02-14T11:08:37.982Z,12.50
2023-02-14T11:11:16.732Z,12.98
2023-02-14T11:13:47.076Z,13.52
2023-02-14T11:16:26.560Z,12.52
2023-02-14T11:19:11.389Z,13.52
2023-02-14T11:21:41.823Z,12.65
2023-02-14T11:24:20.529Z,13.73
2023-02-14T11:26:53.057Z,12.80
2023-02-14T11:29:31.265Z,13.80
2023-02-14T11:32:10.472Z,13.00
2023-02-14T11:34:41.898Z,13.85
2023-02-14T11:37:21.666Z,12.70
2023-02-14T11:39:52.189Z,13.20
2023-02-14T11:42:41.699Z,14.05
2023-02-14T11:45:29.528Z,13.25
2023-02-14T11:48:34.917Z,13.77
2023-02-14T11:51:09.009Z,13.38
2023-02-14T11:53:46.579Z,13.45
2023-02-14T11:56:17.600Z,12.75
2023-02-14T11:58:51.982Z,12.70
2023-02-14T12:01:26.560Z,13.88
2023-02-14T12:04:01.758Z,13.30
2023-02-14T12:06:32.935Z,13.02
2023-02-14T12:09:14.612Z,14.15
2023-02-14T12:11:44.263Z,13.38
2023-02-14T12:14:24.595Z,12.20
2023-02-14T12:17:00.363Z,12.85
2023-02-14T12:19:38.322Z,12.88
2023-02-14T12:22:09.560Z,12.73
2023-02-14T12:24:41.503Z,13.10
2023-02-14T12:27:22.705Z,12.38
2023-02-14T12:29:55.272Z,12.55
2023-02-14T12:32:27.565Z,13.13
2023-02-14T12:35:05.979Z,11.70
2023-02-14T12:37:45.507Z,11.80
2023-02-14T12:40:24.422Z,12.00
2023-02-14T12:43:06.522Z,13.52
2023-02-14T12:45:54.475Z,12.55
2023-02-14T12:48:31.873Z,13.13
2023-02-14T12:51:09.932Z,12.13
2023-02-14T12:53:50.624Z,12.85
2023-02-14T12:56:27.705Z,12.50
2023-02-14T12:59:05.702Z,12.45
2023-02-14T13:01:58.406Z,12.95
2023-02-14T13:04:56.305Z,12.93
2023-02-14T13:07:40.264Z,11.77
2023-02-14T13:10:19.055Z,12.35
2023-02-14T13:12:55.227Z,12.25
2023-02-14T13:15:33.068Z,13.18
2023-02-14T13:18:08.144Z,11.90
2023-02-14T13:20:44.551Z,13.25
2023-02-14T13:23:20.069Z,12.20
2023-02-14T13:25:53.225Z,11.50
2023-02-14T13:28:23.041Z,11.17
2023-02-14T13:30:52.734Z,11.85
2023-02-14T13:33:28.686Z,12.25
2023-02-14T13:36:00.815Z,12.07
2023-02-14T13:38:34.802Z,10.90
2023-02-14T13:41:05.518Z,11.45
2023-02-14T13:43:52.057Z,12.05
2023-02-14T13:46:23.307Z,11.00
2023-02-14T13:49:01.032Z,12.27
2023-02-14T13:51:49.069Z,11.50
2023-02-14T13:54:32.914Z,11.35
2023-02-14T13:57:03.845Z,12.15
2023-02-14T13:59:34.974Z,24.08
2023-02-14T14:02:37.550Z,15.75
2023-02-14T14:05:48.514Z,12.75
2023-02-14T14:08:55.041Z,12.73
2023-02-14T14:12:03.947Z,12.52
2023-02-14T14:14:40.564Z,12.93
2023-02-14T14:17:28.278Z,12.43
2023-02-14T14:19:58.226Z,12.15
2023-02-14T14:22:28.308Z,12.63
2023-02-14T14:24:59.716Z,14.80
2023-02-14T14:27:33.238Z,11.98
2023-02-14T14:30:07.953Z,12.32
2023-02-14T14:32:39.416Z,12.70
2023-02-14T14:35:20.736Z,11.98
2023-02-14T14:37:54.531Z,12.57
2023-02-14T14:40:28.713Z,12.02
2023-02-14T14:43:02.518Z,12.27
2023-02-14T14:45:35.035Z,11.77
2023-02-14T14:48:11.348Z,12.20
2023-02-14T14:50:41.701Z,9.85
2023-02-14T14:53:18.303Z,11.20
2023-02-14T14:55:52.116Z,10.98
2023-02-14T14:58:37.480Z,11.52
2023-02-14T15:01:13.175Z,12.98
2023-02-14T15:03:43.137Z,11.52
2023-02-14T15:06:20.112Z,11.02
2023-02-14T15:08:51.540Z,11.35
2023-02-14T15:11:36.248Z,10.82
2023-02-14T15:14:06.271Z,11.75
2023-02-14T15:16:44.963Z,10.85
2023-02-14T15:19:21.707Z,11.40
2023-02-14T15:21:52.210Z,10.82
2023-02-14T15:24:22.556Z,10.68
2023-02-14T15:26:53.513Z,10.70
2023-02-14T15:29:25.935Z,10.70
2023-02-14T15:32:02.435Z,10.75
2023-02-14T15:34:36.113Z,10.52
2023-02-14T15:37:06.902Z,11.00
2023-02-14T15:39:39.748Z,10.18
2023-02-14T15:42:22.658Z,10.57
2023-02-14T15:44:52.226Z,11.30
2023-02-14T15:47:24.939Z,11.27
2023-02-14T15:49:54.527Z,11.02
2023-02-14T15:52:24.708Z,11.52
2023-02-14T15:54:54.340Z,10.80
2023-02-14T15:57:26.888Z,11.00
2023-02-14T15:59:56.579Z,11.23
2023-02-14T16:02:37.796Z,10.82
2023-02-14T16:05:09.243Z,11.10
2023-02-14T16:07:38.905Z,10.77
2023-02-14T16:10:24.858Z,10.55
2023-02-14T16:13:02.059Z,10.18
2023-02-14T16:15:33.634Z,11.27
2023-02-14T16:18:08.394Z,10.65
2023-02-14T16:20:45.320Z,10.70
2023-02-14T16:23:23.872Z,11.15
2023-02-14T16:25:54.080Z,12.25
2023-02-14T16:28:24.304Z,10.95
2023-02-14T16:30:57.583Z,10.82
2023-02-14T16:33:33.656Z,11.60
2023-02-14T16:36:09.246Z,11.13
2023-02-14T16:38:45.163Z,16.48
2023-02-14T16:41:19.692Z,12.32
2023-02-14T16:43:50.103Z,11.52
2023-02-14T16:46:21.960Z,12.48
2023-02-14T16:48:54.880Z,12.15
2023-02-14T16:51:26.190Z,11.43
2023-02-14T16:53:56.787Z,12.02
2023-02-14T16:56:29.522Z,11.88
2023-02-14T16:59:00.536Z,11.57
2023-02-14T17:01:32.212Z,12.30
2023-02-14T17:04:04.791Z,11.57
2023-02-14T17:06:36.091Z,9.90
2023-02-14T17:09:08.913Z,10.48
2023-02-14T17:11:41.204Z,11.68
2023-02-14T17:14:11.519Z,10.75
2023-02-14T17:16:41.457Z,10.63
2023-02-14T17:19:13.648Z,10.52
2023-02-14T17:21:43.412Z,11.32
2023-02-14T17:24:12.960Z,12.48
2023-02-14T17:26:42.581Z,12.50
2023-02-14T17:29:13.465Z,11.68
2023-02-14T17:31:44.073Z,11.75
2023-02-14T17:34:16.365Z,11.20
2023-02-14T17:36:46.001Z,11.32
2023-02-14T17:39:15.580Z,12.23
2023-02-14T17:41:45.235Z,12.30
2023-02-14T17:44:14.830Z,12.82
2023-02-14T17:46:44.553Z,13.13
2023-02-14T17:49:16.955Z,14.55
2023-02-14T17:51:46.589Z,13.73
2023-02-14T17:54:16.172Z,13.98
2023-02-14T17:56:45.751Z,14.38
2023-02-14T17:59:15.321Z,15.38
2023-02-14T18:01:45.050Z,13.90
2023-02-14T18:04:17.720Z,14.00
2023-02-14T18:06:47.697Z,15.90
2023-02-14T18:09:17.486Z,14.05
2023-02-14T18:11:47.260Z,12.60
2023-02-14T18:14:16.866Z,12.43
2023-02-14T18:16:48.433Z,12.40
2023-02-14T18:19:20.673Z,13.15
2023-02-14T18:21:50.377Z,12.85
2023-02-14T18:24:20.091Z,13.35
2023-02-14T18:26:49.748Z,13.45
2023-02-14T18:29:19.549Z,14.13
2023-02-14T18:31:49.330Z,13.85
2023-02-14T18:34:21.587Z,13.52
2023-02-14T18:36:51.130Z,13.88
2023-02-14T18:39:21.082Z,13.02
2023-02-14T18:41:50.715Z,14.85
2023-02-14T18:44:21.986Z,14.10
2023-02-14T18:46:51.686Z,12.20
2023-02-14T18:49:24.073Z,12.30
2023-02-14T18:51:54.841Z,13.18
2023-02-14T18:54:24.658Z,12.43
2023-02-14T18:56:54.360Z,13.75
2023-02-14T18:59:24.265Z,12.70
2023-02-14T19:01:54.463Z,14.05
2023-02-14T19:04:26.833Z,13.77
2023-02-14T19:06:56.557Z,14.35
2023-02-14T19:09:28.457Z,14.38
2023-02-14T19:12:00.100Z,14.00
2023-02-14T19:14:29.914Z,13.75
2023-02-14T19:16:59.468Z,14.23
2023-02-14T19:19:31.744Z,15.43
2023-02-14T19:22:01.984Z,14.88
2023-02-14T19:24:32.273Z,15.40
2023-02-14T19:27:02.252Z,16.23
2023-02-14T19:29:32.154Z,15.43
2023-02-14T19:32:02.284Z,15.18
2023-02-14T19:34:36.169Z,15.75
2023-02-14T19:37:06.502Z,16.10
2023-02-14T19:39:36.234Z,15.10
2023-02-14T19:42:06.235Z,14.65
2023-02-14T19:44:36.090Z,15.35
2023-02-14T19:47:22.809Z,15.18
2023-02-14T19:49:59.166Z,15.00
2023-02-14T19:52:29.041Z,15.48
2023-02-14T19:54:58.887Z,15.48
2023-02-14T19:57:28.730Z,15.73
2023-02-14T19:59:58.387Z,16.25
2023-02-14T20:02:28.007Z,15.82
2023-02-14T20:05:04.346Z,15.43
2023-02-14T20:07:33.959Z,15.35
2023-02-14T20:10:04.581Z,15.23
2023-02-14T20:12:34.319Z,15.45
2023-02-14T20:15:05.611Z,14.80
2023-02-14T20:17:35.427Z,14.68
2023-02-14T20:20:08.828Z,14.68
2023-02-14T20:22:38.436Z,14.40
2023-02-14T20:25:09.858Z,15.07
2023-02-14T20:27:39.774Z,15.20
2023-02-14T20:30:11.118Z,15.13
2023-02-14T20:32:40.813Z,15.35
2023-02-14T20:35:13.484Z,15.18
2023-02-14T20:37:43.285Z,14.98
2023-02-14T20:40:14.192Z,15.40
2023-02-14T20:42:43.905Z,15.75
2023-02-14T20:45:15.096Z,16.30
2023-02-14T20:47:44.785Z,16.08
2023-02-14T20:50:17.059Z,15.35
2023-02-14T20:52:46.620Z,16.67
2023-02-14T20:55:16.185Z,15.30
2023-02-14T20:57:45.765Z,16.75
2023-02-14T21:00:16.247Z,16.52
2023-02-14T21:02:46.389Z,16.65
2023-02-14T21:05:19.317Z,17.27
2023-02-14T21:07:48.886Z,16.73
2023-02-14T21:10:18.951Z,17.75
2023-02-14T21:12:49.042Z,16.55
2023-02-14T21:15:18.843Z,17.38
2023-02-14T21:17:48.419Z,16.88
2023-02-14T21:20:22.910Z,16.90
2023-02-14T21:22:52.507Z,17.55
2023-02-14T21:25:24.758Z,16.40
2023-02-14T21:27:55.433Z,17.97
2023-02-14T21:30:25.080Z,18.40
2023-02-14T21:32:54.964Z,16.95
2023-02-14T21:35:27.558Z,17.80
2023-02-14T21:37:57.202Z,17.92
2023-02-14T21:40:26.903Z,18.67
2023-02-14T21:42:56.643Z,18.17
2023-02-14T21:45:39.066Z,18.35
2023-02-14T21:48:21.149Z,18.30
2023-02-14T21:50:53.369Z,17.83
2023-02-14T21:53:23.002Z,17.77
2023-02-14T21:55:53.036Z,18.88
2023-02-14T21:58:22.622Z,17.83
2023-02-14T22:00:52.178Z,18.00
2023-02-14T22:03:22.055Z,17.65
2023-02-14T22:05:54.624Z,18.02
2023-02-14T22:08:24.603Z,17.92
2023-02-14T22:10:54.260Z,17.60
2023-02-14T22:13:23.879Z,17.65
2023-02-14T22:15:53.687Z,17.58
2023-02-14T22:18:23.460Z,18.23
2023-02-14T22:20:55.734Z,18.42
2023-02-14T22:23:27.727Z,18.23
2023-02-14T22:25:58.623Z,18.60
2023-02-14T22:28:28.215Z,17.77
2023-02-14T22:30:57.832Z,18.52
2023-02-14T22:33:27.444Z,17.95
2023-02-14T22:36:00.742Z,18.13
2023-02-14T22:38:31.001Z,17.63
2023-02-14T22:41:00.927Z,18.45
2023-02-14T22:43:30.680Z,17.48
2023-02-14T22:46:04.923Z,17.48
2023-02-14T22:51:22.936Z,16.73
2023-02-14T22:53:53.754Z,18.10
2023-02-14T22:56:25.929Z,17.63
2023-02-14T22:58:56.984Z,18.60
2023-02-14T23:01:27.200Z,18.45
2023-02-14T23:03:57.975Z,18.17
2023-02-14T23:06:32.464Z,18.13
2023-02-14T23:09:02.210Z,17.88
2023-02-14T23:11:33.895Z,18.35
2023-02-14T23:14:15.951Z,18.02
2023-02-14T23:16:58.437Z,17.52
2023-02-14T23:19:43.382Z,18.17
2023-02-14T23:22:17.026Z,18.52
2023-02-14T23:24:48.224Z,18.02
2023-02-14T23:27:18.948Z,18.70
2023-02-14T23:29:48.634Z,16.73
2023-02-14T23:32:18.715Z,18.10
2023-02-14T23:34:48.524Z,18.05
2023-02-14T23:37:20.712Z,18.08
2023-02-14T23:39:50.697Z,18.40
2023-02-14T23:42:20.542Z,18.05
2023-02-14T23:44:50.103Z,17.85
2023-02-14T23:47:20.306Z,18.95
2023-02-14T23:49:50.122Z,18.67
2023-02-14T23:52:22.298Z,19.85
2023-02-14T23:54:51.911Z,19.67
2023-02-14T23:57:21.630Z,19.13
2023-02-14T23:59:51.189Z,19.20
